DAGPY EDDM-LFBO
Flight info
| Callsign | DAGPY |
|---|---|
| Flight time | 1h 25m |
| Altitude | 36000 |
| Route | ALG2S/26L ALG Y109 UMTEX/N0472F370 Y100 TRA DCT LUTIX DCT BENOT DCT NEMOS DCT NINTU DCT MEBAK DCT REPSI DCT LERGA/N0476F330 DCT MINSO DCT NARAK |
| Aircraft | CL60/M-SBDE1E2E3FGHIJ1J4J5J7M3RWXYZ/LB1V1D1 |
Departure
| Time | 2026-05-05 18:06 |
|---|---|
| Airport | Munich Airport (EDDM) |
Arrival
| Time | 2026-05-05 19:31 |
|---|---|
| Airport | Toulouse-Blagnac Airport (LFBO) |
| Time | Latitude | Longitude | Altitude | Speed | Heading |
|---|---|---|---|---|---|
| 2026-05-05 17:49 | 48.35932 | 11.80276 | 1467 ft | 0 kts | 174° |
| 2026-05-05 17:59 | 48.35901 | 11.80281 | 1467 ft | 8 kts | 174° |
| 2026-05-05 17:59 | 48.35870 | 11.80214 | 1467 ft | 10 kts | 267° |
| 2026-05-05 17:59 | 48.35861 | 11.80090 | 1468 ft | 13 kts | 263° |
| 2026-05-05 18:00 | 48.35850 | 11.79941 | 1469 ft | 14 kts | 264° |
| 2026-05-05 18:00 | 48.35837 | 11.79773 | 1469 ft | 17 kts | 264° |
| 2026-05-05 18:00 | 48.35822 | 11.79587 | 1470 ft | 18 kts | 264° |
| 2026-05-05 18:00 | 48.35798 | 11.79413 | 1471 ft | 14 kts | 221° |
| 2026-05-05 18:01 | 48.35696 | 11.79411 | 1472 ft | 16 kts | 174° |
| 2026-05-05 18:01 | 48.35579 | 11.79443 | 1473 ft | 18 kts | 156° |
| 2026-05-05 18:01 | 48.35461 | 11.79545 | 1473 ft | 20 kts | 149° |
| 2026-05-05 18:01 | 48.35356 | 11.79606 | 1473 ft | 15 kts | 174° |
| 2026-05-05 18:02 | 48.35243 | 11.79625 | 1474 ft | 17 kts | 173° |
| 2026-05-05 18:02 | 48.35112 | 11.79647 | 1474 ft | 20 kts | 174° |
| 2026-05-05 18:02 | 48.34974 | 11.79670 | 1474 ft | 15 kts | 174° |
| 2026-05-05 18:02 | 48.34907 | 11.79682 | 1474 ft | 7 kts | 173° |
| 2026-05-05 18:03 | 48.34876 | 11.79688 | 1474 ft | 2 kts | 173° |
| 2026-05-05 18:03 | 48.34843 | 11.79694 | 1474 ft | 8 kts | 172° |
| 2026-05-05 18:03 | 48.34809 | 11.79791 | 1474 ft | 14 kts | 83° |
| 2026-05-05 18:03 | 48.34822 | 11.79958 | 1474 ft | 18 kts | 83° |
| 2026-05-05 18:04 | 48.34821 | 11.80140 | 1474 ft | 14 kts | 121° |
| 2026-05-05 18:04 | 48.34744 | 11.80239 | 1474 ft | 15 kts | 172° |
| 2026-05-05 18:04 | 48.34631 | 11.80258 | 1474 ft | 17 kts | 174° |
| 2026-05-05 18:04 | 48.34511 | 11.80274 | 1475 ft | 15 kts | 176° |
| 2026-05-05 18:05 | 48.34461 | 11.80228 | 1475 ft | 5 kts | 263° |
| 2026-05-05 18:05 | 48.34461 | 11.80225 | 1475 ft | 2 kts | 264° |
| 2026-05-05 18:05 | 48.34427 | 11.79761 | 1476 ft | 96 kts | 264° |
| 2026-05-05 18:05 | 48.34314 | 11.78324 | 1587 ft | 169 kts | 264° |
| 2026-05-05 18:06 | 48.34188 | 11.76599 | 2686 ft | 170 kts | 267° |
| 2026-05-05 18:06 | 48.34116 | 11.75439 | 3378 ft | 180 kts | 267° |
| 2026-05-05 18:06 | 48.33957 | 11.72754 | 4417 ft | 209 kts | 266° |
| 2026-05-05 18:06 | 48.33804 | 11.70552 | 5172 ft | 219 kts | 265° |
| 2026-05-05 18:07 | 48.33626 | 11.68259 | 5791 ft | 225 kts | 264° |
| 2026-05-05 18:07 | 48.33441 | 11.65922 | 6204 ft | 225 kts | 264° |
| 2026-05-05 18:07 | 48.33261 | 11.63564 | 6459 ft | 231 kts | 264° |
| 2026-05-05 18:07 | 48.33072 | 11.61055 | 6711 ft | 251 kts | 264° |
| 2026-05-05 18:08 | 48.32874 | 11.58402 | 6817 ft | 257 kts | 264° |
| 2026-05-05 18:08 | 48.32677 | 11.55782 | 7085 ft | 252 kts | 264° |
| 2026-05-05 18:08 | 48.32481 | 11.53154 | 7712 ft | 255 kts | 263° |
| 2026-05-05 18:08 | 48.32282 | 11.50503 | 8316 ft | 262 kts | 263° |
| 2026-05-05 18:09 | 48.32077 | 11.47775 | 8945 ft | 266 kts | 262° |
| 2026-05-05 18:09 | 48.31868 | 11.45003 | 9614 ft | 269 kts | 262° |
| 2026-05-05 18:09 | 48.31661 | 11.42246 | 10515 ft | 269 kts | 262° |
| 2026-05-05 18:09 | 48.31453 | 11.39480 | 11598 ft | 273 kts | 262° |
| 2026-05-05 18:10 | 48.31235 | 11.36607 | 12734 ft | 281 kts | 262° |
| 2026-05-05 18:10 | 48.31015 | 11.33719 | 13875 ft | 287 kts | 261° |
| 2026-05-05 18:10 | 48.30783 | 11.30719 | 14844 ft | 297 kts | 260° |
| 2026-05-05 18:10 | 48.30175 | 11.27778 | 15592 ft | 304 kts | 240° |
| 2026-05-05 18:11 | 48.29029 | 11.24974 | 16163 ft | 325 kts | 236° |
| 2026-05-05 18:11 | 48.27777 | 11.22008 | 16663 ft | 344 kts | 237° |
| 2026-05-05 18:11 | 48.26485 | 11.18936 | 17164 ft | 359 kts | 237° |
| 2026-05-05 18:11 | 48.25122 | 11.15695 | 17672 ft | 370 kts | 237° |
| 2026-05-05 18:12 | 48.23753 | 11.12444 | 18102 ft | 376 kts | 236° |
| 2026-05-05 18:12 | 48.22361 | 11.09137 | 18381 ft | 378 kts | 236° |
| 2026-05-05 18:12 | 48.20955 | 11.05801 | 18639 ft | 377 kts | 236° |
| 2026-05-05 18:12 | 48.19547 | 11.02463 | 18834 ft | 378 kts | 236° |
| 2026-05-05 18:13 | 48.18136 | 10.99122 | 18848 ft | 380 kts | 236° |
| 2026-05-05 18:13 | 48.16734 | 10.95805 | 18843 ft | 378 kts | 236° |
| 2026-05-05 18:13 | 48.15324 | 10.92470 | 18857 ft | 377 kts | 237° |
| 2026-05-05 18:13 | 48.14185 | 10.88906 | 19101 ft | 390 kts | 249° |
| 2026-05-05 18:14 | 48.13294 | 10.85026 | 19829 ft | 395 kts | 249° |
| 2026-05-05 18:14 | 48.12396 | 10.81163 | 20638 ft | 396 kts | 249° |
| 2026-05-05 18:14 | 48.11495 | 10.77307 | 21321 ft | 400 kts | 249° |
| 2026-05-05 18:14 | 48.10577 | 10.73392 | 21965 ft | 405 kts | 249° |
| 2026-05-05 18:15 | 48.09629 | 10.69354 | 22595 ft | 409 kts | 249° |
| 2026-05-05 18:15 | 48.08692 | 10.65379 | 23197 ft | 414 kts | 248° |
| 2026-05-05 18:15 | 48.07725 | 10.61286 | 23814 ft | 418 kts | 248° |
| 2026-05-05 18:15 | 48.06764 | 10.57228 | 24469 ft | 420 kts | 248° |
| 2026-05-05 18:16 | 48.05784 | 10.53098 | 25133 ft | 421 kts | 248° |
| 2026-05-05 18:16 | 48.04797 | 10.48947 | 25701 ft | 424 kts | 248° |
| 2026-05-05 18:16 | 48.03817 | 10.44838 | 26179 ft | 428 kts | 248° |
| 2026-05-05 18:16 | 48.02810 | 10.40624 | 26673 ft | 431 kts | 248° |
| 2026-05-05 18:17 | 48.01798 | 10.36399 | 27201 ft | 433 kts | 248° |
| 2026-05-05 18:17 | 48.00780 | 10.32154 | 27670 ft | 435 kts | 248° |
| 2026-05-05 18:17 | 47.99765 | 10.27933 | 28103 ft | 437 kts | 248° |
| 2026-05-05 18:17 | 47.98728 | 10.23633 | 28534 ft | 441 kts | 248° |
| 2026-05-05 18:18 | 47.97687 | 10.19322 | 28981 ft | 443 kts | 248° |
| 2026-05-05 18:18 | 47.96644 | 10.15012 | 29407 ft | 445 kts | 247° |
| 2026-05-05 18:18 | 47.95583 | 10.10630 | 29966 ft | 444 kts | 247° |
| 2026-05-05 18:18 | 47.94552 | 10.06386 | 30549 ft | 441 kts | 247° |
| 2026-05-05 18:19 | 47.93502 | 10.02072 | 31183 ft | 437 kts | 247° |
| 2026-05-05 18:19 | 47.92473 | 9.97849 | 31831 ft | 432 kts | 247° |
| 2026-05-05 18:19 | 47.91459 | 9.93693 | 32473 ft | 426 kts | 247° |
| 2026-05-05 18:19 | 47.90451 | 9.89577 | 33049 ft | 422 kts | 247° |
| 2026-05-05 18:20 | 47.89455 | 9.85514 | 33566 ft | 419 kts | 247° |
| 2026-05-05 18:20 | 47.88458 | 9.81457 | 34050 ft | 416 kts | 247° |
| 2026-05-05 18:20 | 47.87466 | 9.77431 | 34426 ft | 415 kts | 246° |
| 2026-05-05 18:20 | 47.86472 | 9.73402 | 34770 ft | 415 kts | 247° |
| 2026-05-05 18:21 | 47.85476 | 9.69373 | 35078 ft | 415 kts | 246° |
| 2026-05-05 18:21 | 47.84473 | 9.65322 | 35345 ft | 416 kts | 246° |
| 2026-05-05 18:21 | 47.83606 | 9.61195 | 35596 ft | 419 kts | 254° |
| 2026-05-05 18:21 | 47.83066 | 9.56927 | 35816 ft | 422 kts | 257° |
| 2026-05-05 18:22 | 47.82558 | 9.52639 | 35861 ft | 429 kts | 257° |
| 2026-05-05 18:22 | 47.81490 | 9.43756 | 35877 ft | 440 kts | 257° |
| 2026-05-05 18:23 | 47.80418 | 9.34891 | 35874 ft | 445 kts | 256° |
| 2026-05-05 18:23 | 47.79298 | 9.25698 | 35875 ft | 445 kts | 256° |
| 2026-05-05 18:24 | 47.78193 | 9.16691 | 35878 ft | 444 kts | 256° |
| 2026-05-05 18:24 | 47.77081 | 9.07691 | 35933 ft | 441 kts | 256° |
| 2026-05-05 18:24 | 47.76530 | 9.03255 | 36202 ft | 438 kts | 256° |
| 2026-05-05 18:25 | 47.75973 | 8.98793 | 36462 ft | 438 kts | 256° |
| 2026-05-05 18:25 | 47.75599 | 8.95801 | 36633 ft | 439 kts | 256° |
| 2026-05-05 18:25 | 47.74853 | 8.89871 | 36860 ft | 440 kts | 256° |
| 2026-05-05 18:26 | 47.73717 | 8.80879 | 36865 ft | 447 kts | 256° |
| 2026-05-05 18:26 | 47.72568 | 8.71851 | 36881 ft | 448 kts | 256° |
| 2026-05-05 18:27 | 47.71403 | 8.62742 | 36887 ft | 447 kts | 256° |
| 2026-05-05 18:27 | 47.70237 | 8.53692 | 36882 ft | 447 kts | 256° |
| 2026-05-05 18:28 | 47.67355 | 8.40775 | 36888 ft | 440 kts | 239° |
| 2026-05-05 18:28 | 47.63933 | 8.33314 | 36885 ft | 439 kts | 232° |
| 2026-05-05 18:29 | 47.60360 | 8.25954 | 36885 ft | 439 kts | 232° |
| 2026-05-05 18:29 | 47.56817 | 8.18670 | 36889 ft | 439 kts | 232° |
| 2026-05-05 18:30 | 47.53238 | 8.11332 | 36883 ft | 439 kts | 232° |
| 2026-05-05 18:30 | 47.49677 | 8.04050 | 36878 ft | 438 kts | 232° |
| 2026-05-05 18:31 | 47.46087 | 7.96727 | 36885 ft | 438 kts | 233° |
| 2026-05-05 18:31 | 47.42518 | 7.89464 | 36882 ft | 437 kts | 232° |
| 2026-05-05 18:32 | 47.38967 | 7.82258 | 36883 ft | 437 kts | 233° |
| 2026-05-05 18:32 | 47.35381 | 7.74999 | 36890 ft | 437 kts | 232° |
| 2026-05-05 18:33 | 47.31815 | 7.67800 | 36887 ft | 438 kts | 233° |
| 2026-05-05 18:33 | 47.28214 | 7.60548 | 36886 ft | 439 kts | 233° |
| 2026-05-05 18:34 | 47.24619 | 7.53328 | 36899 ft | 438 kts | 232° |
| 2026-05-05 18:34 | 47.21014 | 7.46106 | 36891 ft | 439 kts | 232° |
| 2026-05-05 18:35 | 47.17384 | 7.38853 | 36889 ft | 438 kts | 233° |
| 2026-05-05 18:35 | 47.13666 | 7.31834 | 36998 ft | 440 kts | 230° |
| 2026-05-05 18:36 | 47.11739 | 7.28284 | 36877 ft | 439 kts | 230° |
| 2026-05-05 18:36 | 47.09851 | 7.24807 | 36881 ft | 436 kts | 230° |
| 2026-05-05 18:36 | 47.06081 | 7.17876 | 36872 ft | 434 kts | 230° |
| 2026-05-05 18:37 | 47.02306 | 7.10955 | 36875 ft | 435 kts | 230° |
| 2026-05-05 18:37 | 46.98517 | 7.04028 | 36880 ft | 435 kts | 230° |
| 2026-05-05 18:38 | 46.94743 | 6.97143 | 36880 ft | 435 kts | 230° |
| 2026-05-05 18:38 | 46.90948 | 6.90239 | 36881 ft | 435 kts | 230° |
| 2026-05-05 18:39 | 46.87167 | 6.83389 | 36884 ft | 436 kts | 230° |
| 2026-05-05 18:39 | 46.83347 | 6.76486 | 36890 ft | 437 kts | 230° |
| 2026-05-05 18:40 | 46.79513 | 6.69575 | 36879 ft | 437 kts | 230° |
| 2026-05-05 18:40 | 46.75692 | 6.62704 | 36875 ft | 437 kts | 230° |
| 2026-05-05 18:41 | 46.71884 | 6.55875 | 36876 ft | 436 kts | 230° |
| 2026-05-05 18:41 | 46.68042 | 6.49001 | 36876 ft | 435 kts | 230° |
| 2026-05-05 18:42 | 46.64237 | 6.42209 | 36883 ft | 435 kts | 230° |
| 2026-05-05 18:42 | 46.60394 | 6.35368 | 36865 ft | 435 kts | 230° |
| 2026-05-05 18:43 | 46.56568 | 6.28573 | 36889 ft | 435 kts | 229° |
| 2026-05-05 18:43 | 46.52714 | 6.21747 | 36878 ft | 435 kts | 230° |
| 2026-05-05 18:44 | 46.48888 | 6.14984 | 36879 ft | 436 kts | 230° |
| 2026-05-05 18:44 | 46.45026 | 6.08177 | 36879 ft | 436 kts | 230° |
| 2026-05-05 18:45 | 46.41180 | 6.01413 | 36870 ft | 436 kts | 230° |
| 2026-05-05 18:45 | 46.37320 | 5.94640 | 36865 ft | 435 kts | 230° |
| 2026-05-05 18:46 | 46.33480 | 5.87920 | 36873 ft | 435 kts | 230° |
| 2026-05-05 18:46 | 46.29626 | 5.81192 | 36872 ft | 436 kts | 230° |
| 2026-05-05 18:47 | 46.25748 | 5.74440 | 36876 ft | 436 kts | 230° |
| 2026-05-05 18:47 | 46.21874 | 5.67709 | 36875 ft | 435 kts | 230° |
| 2026-05-05 18:48 | 46.18022 | 5.61033 | 36875 ft | 436 kts | 230° |
| 2026-05-05 18:48 | 46.14177 | 5.54251 | 36870 ft | 436 kts | 233° |
| 2026-05-05 18:49 | 46.10735 | 5.47077 | 36867 ft | 437 kts | 234° |
| 2026-05-05 18:49 | 46.07255 | 5.39807 | 36869 ft | 438 kts | 234° |
| 2026-05-05 18:50 | 46.03813 | 5.32639 | 36861 ft | 438 kts | 234° |
| 2026-05-05 18:50 | 46.00330 | 5.25409 | 36870 ft | 438 kts | 234° |
| 2026-05-05 18:51 | 45.96846 | 5.18197 | 36873 ft | 439 kts | 234° |
| 2026-05-05 18:51 | 45.93349 | 5.10980 | 36872 ft | 439 kts | 234° |
| 2026-05-05 18:52 | 45.89894 | 5.03869 | 36879 ft | 439 kts | 234° |
| 2026-05-05 18:52 | 45.86375 | 4.96647 | 36877 ft | 439 kts | 234° |
| 2026-05-05 18:53 | 45.82884 | 4.89500 | 36876 ft | 439 kts | 234° |
| 2026-05-05 18:53 | 45.79374 | 4.82334 | 36875 ft | 439 kts | 234° |
| 2026-05-05 18:54 | 45.75846 | 4.75149 | 36866 ft | 440 kts | 234° |
| 2026-05-05 18:54 | 45.72333 | 4.68014 | 36862 ft | 440 kts | 234° |
| 2026-05-05 18:55 | 45.68817 | 4.60887 | 36868 ft | 439 kts | 234° |
| 2026-05-05 18:55 | 45.65295 | 4.53766 | 36858 ft | 440 kts | 234° |
| 2026-05-05 18:56 | 45.61753 | 4.46623 | 36872 ft | 439 kts | 234° |
| 2026-05-05 18:56 | 45.58231 | 4.39537 | 36875 ft | 440 kts | 234° |
| 2026-05-05 18:57 | 45.54737 | 4.32524 | 36880 ft | 441 kts | 233° |
| 2026-05-05 18:57 | 45.51169 | 4.25384 | 36877 ft | 441 kts | 233° |
| 2026-05-05 18:58 | 45.47619 | 4.18302 | 36888 ft | 441 kts | 233° |
| 2026-05-05 18:58 | 45.44033 | 4.11169 | 36888 ft | 442 kts | 233° |
| 2026-05-05 18:59 | 45.40467 | 4.04092 | 36890 ft | 442 kts | 233° |
| 2026-05-05 18:59 | 45.36896 | 3.97023 | 36893 ft | 443 kts | 233° |
| 2026-05-05 19:00 | 45.33279 | 3.89881 | 36875 ft | 443 kts | 233° |
| 2026-05-05 19:00 | 45.29694 | 3.82818 | 36884 ft | 443 kts | 233° |
| 2026-05-05 19:01 | 45.26095 | 3.75747 | 36881 ft | 442 kts | 233° |
| 2026-05-05 19:01 | 45.22568 | 3.68617 | 36891 ft | 443 kts | 234° |
| 2026-05-05 19:02 | 45.19049 | 3.61469 | 36896 ft | 443 kts | 234° |
| 2026-05-05 19:02 | 45.15518 | 3.54315 | 36900 ft | 444 kts | 234° |
| 2026-05-05 19:03 | 45.11966 | 3.47139 | 36898 ft | 444 kts | 234° |
| 2026-05-05 19:03 | 45.08434 | 3.40019 | 36900 ft | 444 kts | 234° |
| 2026-05-05 19:04 | 45.04869 | 3.32854 | 36902 ft | 445 kts | 234° |
| 2026-05-05 19:04 | 45.01366 | 3.25831 | 36900 ft | 446 kts | 234° |
| 2026-05-05 19:05 | 44.97798 | 3.18695 | 36905 ft | 445 kts | 234° |
| 2026-05-05 19:05 | 44.94217 | 3.11550 | 36901 ft | 445 kts | 234° |
| 2026-05-05 19:06 | 44.90623 | 3.04397 | 36426 ft | 446 kts | 234° |
| 2026-05-05 19:06 | 44.88858 | 3.00892 | 35971 ft | 440 kts | 234° |
| 2026-05-05 19:06 | 44.87158 | 2.97520 | 35488 ft | 435 kts | 233° |
| 2026-05-05 19:07 | 44.85431 | 2.94096 | 35007 ft | 431 kts | 233° |
| 2026-05-05 19:07 | 44.83765 | 2.90622 | 34541 ft | 429 kts | 236° |
| 2026-05-05 19:07 | 44.82152 | 2.87104 | 34048 ft | 428 kts | 236° |
| 2026-05-05 19:07 | 44.80524 | 2.83562 | 33579 ft | 427 kts | 236° |
| 2026-05-05 19:08 | 44.78905 | 2.80046 | 33108 ft | 427 kts | 235° |
| 2026-05-05 19:08 | 44.77292 | 2.76547 | 32622 ft | 427 kts | 235° |
| 2026-05-05 19:08 | 44.75678 | 2.73050 | 32159 ft | 429 kts | 235° |
| 2026-05-05 19:08 | 44.74058 | 2.69545 | 31653 ft | 429 kts | 235° |
| 2026-05-05 19:09 | 44.72432 | 2.66034 | 31211 ft | 431 kts | 235° |
| 2026-05-05 19:09 | 44.70804 | 2.62521 | 30746 ft | 433 kts | 234° |
| 2026-05-05 19:09 | 44.69162 | 2.58983 | 30256 ft | 434 kts | 234° |
| 2026-05-05 19:09 | 44.67511 | 2.55427 | 29785 ft | 432 kts | 234° |
| 2026-05-05 19:10 | 44.65883 | 2.51928 | 29319 ft | 430 kts | 234° |
| 2026-05-05 19:10 | 44.64245 | 2.48409 | 28839 ft | 428 kts | 234° |
| 2026-05-05 19:10 | 44.62620 | 2.44927 | 28378 ft | 426 kts | 234° |
| 2026-05-05 19:10 | 44.61003 | 2.41462 | 27902 ft | 424 kts | 234° |
| 2026-05-05 19:11 | 44.59374 | 2.37978 | 27437 ft | 422 kts | 234° |
| 2026-05-05 19:11 | 44.57818 | 2.34652 | 26984 ft | 421 kts | 234° |
| 2026-05-05 19:11 | 44.56170 | 2.31137 | 26509 ft | 419 kts | 233° |
| 2026-05-05 19:11 | 44.54575 | 2.27738 | 26052 ft | 416 kts | 233° |
| 2026-05-05 19:12 | 44.52982 | 2.24346 | 25584 ft | 414 kts | 233° |
| 2026-05-05 19:12 | 44.51407 | 2.20998 | 25130 ft | 412 kts | 233° |
| 2026-05-05 19:12 | 44.49852 | 2.17696 | 24681 ft | 410 kts | 233° |
| 2026-05-05 19:12 | 44.48269 | 2.14338 | 24234 ft | 409 kts | 233° |
| 2026-05-05 19:13 | 44.46707 | 2.11029 | 23761 ft | 407 kts | 234° |
| 2026-05-05 19:13 | 44.45165 | 2.07766 | 23338 ft | 404 kts | 234° |
| 2026-05-05 19:13 | 44.43612 | 2.04483 | 22885 ft | 402 kts | 234° |
| 2026-05-05 19:13 | 44.42065 | 2.01218 | 22452 ft | 400 kts | 234° |
| 2026-05-05 19:14 | 44.40539 | 1.97999 | 22002 ft | 397 kts | 234° |
| 2026-05-05 19:14 | 44.39024 | 1.94809 | 21574 ft | 395 kts | 234° |
| 2026-05-05 19:14 | 44.37521 | 1.91644 | 21139 ft | 392 kts | 234° |
| 2026-05-05 19:14 | 44.35999 | 1.88445 | 20704 ft | 390 kts | 235° |
| 2026-05-05 19:15 | 44.34513 | 1.85326 | 20276 ft | 387 kts | 235° |
| 2026-05-05 19:15 | 44.33032 | 1.82221 | 19853 ft | 385 kts | 235° |
| 2026-05-05 19:15 | 44.31539 | 1.79093 | 19429 ft | 382 kts | 235° |
| 2026-05-05 19:15 | 44.30046 | 1.76054 | 19010 ft | 379 kts | 231° |
| 2026-05-05 19:16 | 44.28175 | 1.73571 | 18595 ft | 375 kts | 216° |
| 2026-05-05 19:16 | 44.26022 | 1.71505 | 18170 ft | 372 kts | 214° |
| 2026-05-05 19:16 | 44.23906 | 1.69483 | 17763 ft | 370 kts | 215° |
| 2026-05-05 19:16 | 44.21788 | 1.67457 | 17356 ft | 369 kts | 215° |
| 2026-05-05 19:17 | 44.19658 | 1.65421 | 16946 ft | 366 kts | 215° |
| 2026-05-05 19:17 | 44.17583 | 1.63439 | 16546 ft | 364 kts | 215° |
| 2026-05-05 19:17 | 44.15482 | 1.61434 | 16140 ft | 362 kts | 215° |
| 2026-05-05 19:17 | 44.13417 | 1.59465 | 15745 ft | 360 kts | 215° |
| 2026-05-05 19:18 | 44.11356 | 1.57501 | 15349 ft | 358 kts | 215° |
| 2026-05-05 19:18 | 44.09284 | 1.55529 | 14956 ft | 356 kts | 216° |
| 2026-05-05 19:18 | 44.07262 | 1.53605 | 14569 ft | 355 kts | 216° |
| 2026-05-05 19:18 | 44.05203 | 1.51648 | 14172 ft | 352 kts | 216° |
| 2026-05-05 19:19 | 44.03180 | 1.49727 | 13788 ft | 350 kts | 216° |
| 2026-05-05 19:19 | 44.01179 | 1.47829 | 13400 ft | 348 kts | 216° |
| 2026-05-05 19:19 | 43.99198 | 1.45974 | 13027 ft | 342 kts | 213° |
| 2026-05-05 19:19 | 43.97034 | 1.44706 | 12685 ft | 337 kts | 195° |
| 2026-05-05 19:20 | 43.94717 | 1.44119 | 12410 ft | 342 kts | 192° |
| 2026-05-05 19:20 | 43.92350 | 1.43557 | 12163 ft | 346 kts | 192° |
| 2026-05-05 19:20 | 43.89982 | 1.42991 | 11963 ft | 346 kts | 192° |
| 2026-05-05 19:20 | 43.87668 | 1.42439 | 11953 ft | 346 kts | 192° |
| 2026-05-05 19:21 | 43.85264 | 1.41949 | 11963 ft | 348 kts | 186° |
| 2026-05-05 19:21 | 43.82827 | 1.42255 | 11974 ft | 353 kts | 168° |
| 2026-05-05 19:21 | 43.80548 | 1.43599 | 11763 ft | 360 kts | 150° |
| 2026-05-05 19:21 | 43.78551 | 1.45664 | 11269 ft | 356 kts | 144° |
| 2026-05-05 19:22 | 43.76644 | 1.47733 | 10745 ft | 342 kts | 144° |
| 2026-05-05 19:22 | 43.74786 | 1.49739 | 10266 ft | 332 kts | 144° |
| 2026-05-05 19:22 | 43.72987 | 1.51679 | 9781 ft | 327 kts | 144° |
| 2026-05-05 19:22 | 43.71141 | 1.53499 | 9280 ft | 329 kts | 154° |
| 2026-05-05 19:23 | 43.68959 | 1.54474 | 8773 ft | 326 kts | 169° |
| 2026-05-05 19:23 | 43.66768 | 1.55179 | 8406 ft | 320 kts | 168° |
| 2026-05-05 19:23 | 43.64655 | 1.55875 | 8087 ft | 308 kts | 168° |
| 2026-05-05 19:23 | 43.62586 | 1.56555 | 7608 ft | 303 kts | 168° |
| 2026-05-05 19:24 | 43.60555 | 1.57223 | 7107 ft | 300 kts | 168° |
| 2026-05-05 19:24 | 43.58539 | 1.57886 | 6604 ft | 296 kts | 168° |
| 2026-05-05 19:24 | 43.56572 | 1.58533 | 6066 ft | 286 kts | 168° |
| 2026-05-05 19:24 | 43.54662 | 1.59163 | 5562 ft | 277 kts | 169° |
| 2026-05-05 19:25 | 43.52815 | 1.59770 | 5071 ft | 268 kts | 169° |
| 2026-05-05 19:25 | 43.51001 | 1.59953 | 4581 ft | 257 kts | 191° |
| 2026-05-05 19:25 | 43.49361 | 1.59191 | 4091 ft | 247 kts | 214° |
| 2026-05-05 19:25 | 43.48102 | 1.57669 | 3707 ft | 232 kts | 236° |
| 2026-05-05 19:26 | 43.47377 | 1.55798 | 3498 ft | 215 kts | 255° |
| 2026-05-05 19:26 | 43.47228 | 1.53841 | 3410 ft | 199 kts | 281° |
| 2026-05-05 19:26 | 43.47751 | 1.52132 | 3304 ft | 194 kts | 309° |
| 2026-05-05 19:26 | 43.48768 | 1.50892 | 3180 ft | 195 kts | 321° |
| 2026-05-05 19:27 | 43.49851 | 1.49735 | 3049 ft | 196 kts | 320° |
| 2026-05-05 19:27 | 43.50905 | 1.48620 | 2996 ft | 183 kts | 321° |
| 2026-05-05 19:27 | 43.51891 | 1.47593 | 2929 ft | 178 kts | 321° |
| 2026-05-05 19:27 | 43.52897 | 1.46546 | 2693 ft | 178 kts | 321° |
| 2026-05-05 19:28 | 43.53878 | 1.45529 | 2475 ft | 177 kts | 321° |
| 2026-05-05 19:28 | 43.54855 | 1.44518 | 2239 ft | 168 kts | 321° |
| 2026-05-05 19:28 | 43.55746 | 1.43597 | 2015 ft | 154 kts | 321° |
| 2026-05-05 19:28 | 43.56619 | 1.42689 | 1811 ft | 156 kts | 321° |
| 2026-05-05 19:29 | 43.57448 | 1.41831 | 1629 ft | 136 kts | 321° |
| 2026-05-05 19:29 | 43.58164 | 1.41092 | 1478 ft | 128 kts | 321° |
| 2026-05-05 19:29 | 43.58882 | 1.40344 | 1260 ft | 126 kts | 321° |
| 2026-05-05 19:29 | 43.59581 | 1.39615 | 1107 ft | 127 kts | 321° |
| 2026-05-05 19:30 | 43.60292 | 1.38875 | 933 ft | 127 kts | 321° |
| 2026-05-05 19:30 | 43.61001 | 1.38138 | 770 ft | 127 kts | 322° |
| 2026-05-05 19:30 | 43.61720 | 1.37392 | 593 ft | 131 kts | 322° |
| 2026-05-05 19:30 | 43.62425 | 1.36663 | 499 ft | 116 kts | 322° |
| 2026-05-05 19:31 | 43.62944 | 1.36122 | 498 ft | 70 kts | 322° |
| 2026-05-05 19:31 | 43.63283 | 1.35767 | 497 ft | 55 kts | 323° |
| 2026-05-05 19:31 | 43.63509 | 1.35535 | 496 ft | 22 kts | 323° |
| 2026-05-05 19:31 | 43.63589 | 1.35524 | 496 ft | 13 kts | 47° |
| 2026-05-05 19:32 | 43.63655 | 1.35641 | 495 ft | 17 kts | 53° |
| 2026-05-05 19:32 | 43.63739 | 1.35795 | 495 ft | 21 kts | 53° |
| 2026-05-05 19:32 | 43.63805 | 1.35915 | 494 ft | 6 kts | 54° |
| 2026-05-05 19:32 | 43.63809 | 1.35922 | 494 ft | 0 kts | 55° |
| 2026-05-05 19:33 | 43.63809 | 1.35923 | 494 ft | 0 kts | 55° |
| 2026-05-05 19:33 | 43.63819 | 1.35949 | 494 ft | 6 kts | 76° |
| 2026-05-05 19:33 | 43.63781 | 1.36026 | 494 ft | 12 kts | 143° |
| 2026-05-05 19:33 | 43.63701 | 1.36110 | 495 ft | 16 kts | 143° |
| 2026-05-05 19:34 | 43.63602 | 1.36213 | 495 ft | 19 kts | 143° |
| 2026-05-05 19:34 | 43.63487 | 1.36334 | 495 ft | 22 kts | 143° |
| 2026-05-05 19:34 | 43.63357 | 1.36468 | 496 ft | 24 kts | 143° |
| 2026-05-05 19:35 | 43.63057 | 1.36780 | 496 ft | 27 kts | 143° |
| 2026-05-05 19:35 | 43.62921 | 1.36922 | 496 ft | 25 kts | 143° |
| 2026-05-05 19:35 | 43.62776 | 1.37072 | 497 ft | 27 kts | 143° |
| 2026-05-05 19:35 | 43.62643 | 1.37210 | 498 ft | 18 kts | 144° |
| 2026-05-05 19:36 | 43.62535 | 1.37322 | 499 ft | 21 kts | 143° |
| 2026-05-05 19:36 | 43.62412 | 1.37450 | 500 ft | 23 kts | 143° |
| 2026-05-05 19:36 | 43.62281 | 1.37586 | 501 ft | 18 kts | 143° |
| 2026-05-05 19:36 | 43.62170 | 1.37701 | 502 ft | 21 kts | 143° |
| 2026-05-05 19:37 | 43.62045 | 1.37833 | 502 ft | 23 kts | 143° |
| 2026-05-05 19:37 | 43.61904 | 1.37979 | 502 ft | 25 kts | 143° |
| 2026-05-05 19:37 | 43.61838 | 1.38078 | 502 ft | 11 kts | 78° |
| 2026-05-05 19:37 | 43.61909 | 1.38121 | 502 ft | 13 kts | 352° |
| 2026-05-05 19:38 | 43.61989 | 1.38048 | 502 ft | 11 kts | 336° |
| 2026-05-05 19:38 | 43.62046 | 1.38059 | 502 ft | 7 kts | 25° |
| 2026-05-05 19:38 | 43.62110 | 1.38099 | 501 ft | 11 kts | 13° |
| 2026-05-05 19:38 | 43.62155 | 1.38064 | 501 ft | 6 kts | 279° |
| 2026-05-05 19:39 | 43.62143 | 1.38030 | 502 ft | 0 kts | 233° |
| 2026-05-05 19:39 | 43.62141 | 1.38025 | 502 ft | 0 kts | 231° |